Annville, KY

11:08 AM EST on December 08, 2016 (GMT -0500)
wind cave ky | | Change Station

Elev 1027 ft 37.50 °N, 83.94 °W | Updated 1 minute ago

Partly Cloudy
Partly Cloudy
32.4 °F
Feels Like 25 °F
N
8.3
Wind Variable Wind from WNW

Today
High -- | Low -- °F
--% Chance of Precip.
Yesterday
High -- | Low -- °F
Precip. -- in
Pressure 30.34 in
Visibility 10.0 miles
Clouds Few 2800 ft
Windchill 25 °F
Dew Point 24 °F
Humidity 72%
Rainfall 0.00 in
Snow Depth Not available.
7:37 AM 5:18 PM
Waxing Gibbous, 64% visible
METAR KLOZ 081553Z AUTO 29010KT 10SM FEW028 01/M07 A3032 RMK AO2 SLP274 T00111067
Pressure 30.34 in
Visibility 10.0 miles
Clouds Few 2800 ft
Windchill 25 °F
Dew Point 24 °F
Humidity 72%
Rainfall 0.00 in
Snow Depth Not available.
7:37 AM 5:18 PM
Waxing Gibbous, 64% visible
METAR KLOZ 081553Z AUTO 29010KT 10SM FEW028 01/M07 A3032 RMK AO2 SLP274 T00111067

10-Day Weather Forecast

Almanac

Astronomy

Dec. 08, 2016 Rise Set
Actual Time
Civil Twilight
Nautical Twilight
Astronomical Twilight
Moon
Length of Visible Light
Length of Day
Tomorrow will be .
, % of the Moon is Illuminated

Today's Extremes

State Highs State Lows

Community

WunderPhotos

Upload Photos

1,956,274 photos uploaded!

WunderBlog® & News

Nearby

Air Quality

  Air Quality AQ Index Pollutant
Not available.

Snow Depth

Station Depth Elevation

Earthquake Activity

City Distance Mag. Time & Date
Minimum magnitude displayed is 2.5.

Coastal Water Temperatures

Place Temperature

Stations

Nearby Weather Stations

Station Location Temp. Windchill Dew Point Humidity Wind Precip. Elev Updated Type
                   

Watches & Warnings

There are currently no watches in effect.